Time;durP1;ratioP1;P1;durP2;ratioP2;P2;SDS_P1;SDS_P2;PMS_P1;PMS_P2;Temp;Humidity;BMP_temperature;BMP_pressure;BME280_temperature;BME280_humidity;BME280_pressure;Samples;Min_cycle;Max_cycle;Signal;HPM_P1;HPM_P2
2022/04/19 00:02:06;;;;;;;2.85;2.50;;;11.90;1.00;;;;;;5055659;28;20033;-88
2022/04/19 00:04:32;;;;;;;6.32;2.50;;;12.00;1.00;;;;;;5054136;28;20033;-88
2022/04/19 00:06:58;;;;;;;4.07;2.88;;;12.00;1.00;;;;;;5056863;28;20028;-88
2022/04/19 00:09:29;;;;;;;2.83;2.60;;;12.00;1.00;;;;;;5053471;28;20029;-88
2022/04/19 00:11:58;;;;;;;3.17;2.47;;;11.90;1.00;;;;;;5053735;28;20025;-88
2022/04/19 00:14:23;;;;;;;2.75;2.53;;;11.80;1.00;;;;;;5056982;28;20080;-89
2022/04/19 00:16:50;;;;;;;2.45;2.25;;;11.70;1.00;;;;;;5056544;28;20040;-89
2022/04/19 00:19:16;;;;;;;2.67;2.35;;;11.70;1.00;;;;;;5055921;28;20051;-89
2022/04/19 00:21:41;;;;;;;3.63;2.28;;;11.70;1.00;;;;;;5056416;28;20029;-89
2022/04/19 00:24:08;;;;;;;2.67;2.42;;;11.50;1.00;;;;;;5051897;28;20497;-89
2022/04/19 00:26:36;;;;;;;3.88;2.67;;;11.60;1.00;;;;;;5065655;28;20099;-88
2022/04/19 00:29:06;;;;;;;3.70;2.47;;;11.70;1.00;;;;;;5056213;28;20481;-88
2022/04/19 00:31:35;;;;;;;3.60;2.45;;;11.70;1.00;;;;;;5056165;28;20405;-89
2022/04/19 00:34:02;;;;;;;2.90;2.55;;;11.80;1.00;;;;;;5054710;28;20050;-88
2022/04/19 00:36:28;;;;;;;3.50;2.60;;;11.70;1.00;;;;;;5054527;28;20112;-88
2022/04/19 00:38:54;;;;;;;3.97;2.45;;;11.80;1.00;;;;;;5053302;28;20021;-89
2022/04/19 00:41:20;;;;;;;2.63;2.42;;;11.70;1.00;;;;;;5056201;28;20505;-89
2022/04/19 00:43:46;;;;;;;2.58;2.30;;;11.80;1.00;;;;;;5055448;28;20482;-88
2022/04/19 00:46:11;;;;;;;3.72;2.70;;;11.80;1.00;;;;;;5055846;28;20111;-88
2022/04/19 00:48:37;;;;;;;3.10;2.78;;;11.70;1.00;;;;;;5055508;28;20012;-89
2022/04/19 00:51:05;;;;;;;2.92;2.63;;;11.50;1.00;;;;;;5051662;28;20029;-89
2022/04/19 00:53:30;;;;;;;3.35;2.50;;;11.50;1.00;;;;;;5057759;28;20025;-88
2022/04/19 00:55:57;;;;;;;3.08;2.67;;;11.50;1.00;;;;;;5055507;28;20044;-88
2022/04/19 00:58:23;;;;;;;4.68;2.53;;;11.50;1.00;;;;;;5053574;28;20512;-88
2022/04/19 01:00:52;;;;;;;4.03;2.47;;;11.40;1.00;;;;;;5055536;28;20024;-88
2022/04/19 01:03:18;;;;;;;3.03;2.35;;;11.50;1.00;;;;;;5052098;28;20067;-89
2022/04/19 01:05:46;;;;;;;3.30;2.60;;;11.50;1.00;;;;;;5054970;28;20029;-88
2022/04/19 01:08:16;;;;;;;3.15;2.35;;;11.30;1.00;;;;;;5056967;28;20037;-88
2022/04/19 01:10:45;;;;;;;2.58;2.10;;;11.30;1.00;;;;;;5055279;28;20061;-88
2022/04/19 01:13:17;;;;;;;2.83;2.20;;;11.40;1.00;;;;;;5055053;28;20021;-89
2022/04/19 01:15:49;;;;;;;4.25;2.60;;;11.50;1.00;;;;;;5055061;28;20119;-89
2022/04/19 01:18:20;;;;;;;2.80;2.30;;;11.40;1.00;;;;;;5050945;28;20051;-88
2022/04/19 01:20:51;;;;;;;3.10;2.38;;;11.70;1.00;;;;;;5053428;28;20121;-89
2022/04/19 01:23:22;;;;;;;2.90;2.60;;;11.60;1.00;;;;;;5054589;28;20394;-89
2022/04/19 01:25:49;;;;;;;2.67;2.47;;;11.20;1.00;;;;;;5055123;28;20075;-88
2022/04/19 01:28:16;;;;;;;3.10;2.40;;;11.20;1.00;;;;;;5055147;28;20032;-89
2022/04/19 01:30:52;;;;;;;3.85;2.47;;;11.20;1.00;;;;;;5053523;28;20454;-88
2022/04/19 01:33:21;;;;;;;3.53;2.60;;;11.20;1.00;;;;;;5051965;28;20102;-89
2022/04/19 01:35:49;;;;;;;2.83;2.45;;;11.20;1.00;;;;;;5053713;28;20490;-90
2022/04/19 01:38:19;;;;;;;3.42;2.65;;;11.00;1.00;;;;;;5056057;28;20086;-88
2022/04/19 01:40:46;;;;;;;3.28;2.50;;;11.10;1.00;;;;;;5054857;28;20033;-88
2022/04/19 01:43:14;;;;;;;2.97;2.47;;;11.10;1.00;;;;;;5054805;28;20029;-89
2022/04/19 01:45:41;;;;;;;3.20;2.60;;;11.10;1.00;;;;;;5054710;28;20110;-88
2022/04/19 01:48:08;;;;;;;3.45;2.78;;;11.10;1.00;;;;;;5049730;28;20100;-88
2022/04/19 01:50:37;;;;;;;2.90;2.60;;;11.00;1.00;;;;;;5056880;28;20036;-89
2022/04/19 01:53:04;;;;;;;3.35;2.60;;;10.70;1.00;;;;;;5053495;28;20083;-89
2022/04/19 01:55:30;;;;;;;2.50;2.30;;;10.80;1.00;;;;;;5054438;28;20417;-89
2022/04/19 01:57:58;;;;;;;3.03;2.58;;;10.90;1.00;;;;;;5052760;28;20025;-89
2022/04/19 02:00:29;;;;;;;4.25;2.65;;;10.80;1.00;;;;;;5051191;28;20033;-88
2022/04/19 02:03:01;;;;;;;3.80;2.80;;;11.10;1.00;;;;;;5051494;28;20420;-89
2022/04/19 02:05:26;;;;;;;4.82;2.45;;;11.00;1.00;;;;;;5055987;28;20559;-89
2022/04/19 02:07:52;;;;;;;3.60;2.80;;;10.90;1.00;;;;;;5052075;28;20029;-88
2022/04/19 02:10:19;;;;;;;2.88;2.50;;;10.80;1.00;;;;;;5054089;28;20037;-88
2022/04/19 02:12:47;;;;;;;3.75;2.40;;;10.80;1.00;;;;;;5053832;28;20027;-89
2022/04/19 02:15:15;;;;;;;3.72;2.65;;;10.80;1.00;;;;;;5050853;28;20025;-88
2022/04/19 02:17:45;;;;;;;3.15;2.50;;;10.70;1.00;;;;;;5053646;28;20067;-88
2022/04/19 02:20:13;;;;;;;2.72;2.53;;;10.70;1.00;;;;;;5055704;28;20021;-88
2022/04/19 02:22:39;;;;;;;2.90;2.60;;;10.50;1.00;;;;;;5054673;28;20060;-88
2022/04/19 02:25:06;;;;;;;3.88;2.45;;;10.40;1.00;;;;;;5053601;28;20114;-88
2022/04/19 02:27:33;;;;;;;3.35;2.38;;;10.40;1.00;;;;;;5053440;28;20028;-88
2022/04/19 02:30:03;;;;;;;3.95;2.42;;;10.30;1.00;;;;;;5050591;28;20465;-88
2022/04/19 02:32:29;;;;;;;3.10;2.70;;;10.30;1.00;;;;;;5058107;28;20048;-88
2022/04/19 02:34:55;;;;;;;3.17;2.60;;;10.30;1.00;;;;;;5057878;28;20039;-89
2022/04/19 02:37:21;;;;;;;3.08;2.40;;;10.20;1.00;;;;;;5056888;28;20444;-88
2022/04/19 02:39:47;;;;;;;3.60;2.15;;;10.10;1.00;;;;;;5056264;28;20031;-88
2022/04/19 02:42:13;;;;;;;3.00;2.70;;;10.10;1.00;;;;;;5055000;28;20065;-88
2022/04/19 02:44:39;;;;;;;3.28;2.40;;;10.10;1.00;;;;;;5058329;28;20482;-88
2022/04/19 02:47:11;;;;;;;2.80;2.30;;;10.10;1.00;;;;;;5058651;28;20100;-88
2022/04/19 02:49:37;;;;;;;3.95;2.60;;;10.00;1.00;;;;;;5057821;28;20116;-89
2022/04/19 02:52:03;;;;;;;3.67;2.70;;;10.00;1.00;;;;;;5058116;28;20120;-88
2022/04/19 02:54:29;;;;;;;5.38;2.78;;;10.10;1.00;;;;;;5056111;28;20024;-88
2022/04/19 02:56:57;;;;;;;4.65;3.10;;;10.00;1.00;;;;;;5054841;28;20048;-89
2022/04/19 02:59:23;;;;;;;3.42;2.88;;;10.00;1.00;;;;;;5059941;28;20025;-88
2022/04/19 03:01:49;;;;;;;3.10;2.80;;;10.00;1.00;;;;;;5057904;28;20029;-89
2022/04/19 03:04:15;;;;;;;3.30;2.97;;;10.10;1.00;;;;;;5057737;28;20039;-89
2022/04/19 03:06:41;;;;;;;4.30;3.20;;;10.10;1.00;;;;;;5057406;28;20029;-88
2022/04/19 03:09:06;;;;;;;5.05;3.00;;;10.20;1.00;;;;;;5053048;28;20037;-89
2022/04/19 03:11:32;;;;;;;3.47;3.00;;;10.30;1.00;;;;;;5059799;28;20473;-88
2022/04/19 03:13:58;;;;;;;3.55;3.25;;;10.30;1.00;;;;;;5057373;28;20040;-88
2022/04/19 03:16:26;;;;;;;3.90;3.17;;;10.20;1.00;;;;;;5056142;28;20037;-88
2022/04/19 03:18:52;;;;;;;4.68;3.33;;;10.30;1.00;;;;;;5055936;28;20024;-89
2022/04/19 03:21:19;;;;;;;4.85;3.53;;;10.30;1.00;;;;;;5054781;28;20037;-88
2022/04/19 03:29:15;;;;;;;10.60;3.58;;;10.20;1.00;;;;;;5059015;28;20143;-88
2022/04/19 03:31:41;;;;;;;3.63;3.10;;;10.30;1.00;;;;;;5056803;28;20053;-89
2022/04/19 03:34:07;;;;;;;3.95;3.33;;;10.30;1.00;;;;;;5057222;28;20021;-88
2022/04/19 03:36:35;;;;;;;6.57;3.50;;;10.40;1.00;;;;;;5056379;28;20094;-89
2022/04/19 03:39:01;;;;;;;3.83;3.35;;;10.00;1.00;;;;;;5053090;28;20040;-88
2022/04/19 03:41:26;;;;;;;4.50;2.97;;;10.00;1.00;;;;;;5059392;28;20024;-89
2022/04/19 03:43:53;;;;;;;6.65;3.40;;;10.20;1.00;;;;;;5056605;28;20083;-89
2022/04/19 03:46:22;;;;;;;5.35;3.17;;;10.10;1.00;;;;;;5056627;28;20500;-88
2022/04/19 03:48:48;;;;;;;4.03;2.90;;;9.80;1.00;;;;;;5057174;28;20433;-89
2022/04/19 03:51:13;;;;;;;3.30;2.65;;;9.70;1.00;;;;;;5053735;28;20647;-89
2022/04/19 03:53:41;;;;;;;4.18;2.72;;;9.50;1.00;;;;;;5056863;28;20050;-89
2022/04/19 03:56:14;;;;;;;3.40;2.80;;;9.70;1.00;;;;;;5056377;28;20401;-88
2022/04/19 03:58:49;;;;;;;6.63;3.55;;;9.70;1.00;;;;;;5054909;28;20025;-89
2022/04/19 04:01:17;;;;;;;6.28;3.30;;;9.70;1.00;;;;;;5056499;28;20580;-88
2022/04/19 04:03:43;;;;;;;4.03;3.55;;;9.70;1.00;;;;;;5056462;28;20644;-89
2022/04/19 04:06:09;;;;;;;4.43;3.38;;;9.70;1.00;;;;;;5050993;28;20525;-89
2022/04/19 04:08:38;;;;;;;6.40;3.42;;;9.70;1.00;;;;;;5058541;28;20025;-89
2022/04/19 04:11:04;;;;;;;3.72;3.35;;;9.90;1.00;;;;;;5055631;28;20052;-89
2022/04/19 04:13:30;;;;;;;4.13;3.20;;;9.70;1.00;;;;;;5056362;28;20063;-89
2022/04/19 04:15:55;;;;;;;3.85;3.28;;;9.60;1.00;;;;;;5055690;28;20439;-88
2022/04/19 04:18:21;;;;;;;3.33;3.03;;;9.80;1.00;;;;;;5052797;28;20033;-89
2022/04/19 04:20:47;;;;;;;3.17;2.88;;;9.80;1.00;;;;;;5054485;28;20021;-88
2022/04/19 04:23:13;;;;;;;4.72;3.17;;;9.90;1.00;;;;;;5057594;28;20592;-89
2022/04/19 04:25:39;;;;;;;4.53;3.40;;;9.90;1.00;;;;;;5056266;28;20025;-89
2022/04/19 04:28:05;;;;;;;4.03;3.13;;;9.90;1.00;;;;;;5055874;28;20517;-89
2022/04/19 04:30:31;;;;;;;3.40;3.03;;;9.80;1.00;;;;;;5055083;28;20028;-89
2022/04/19 04:32:57;;;;;;;4.32;3.40;;;9.70;1.00;;;;;;5052432;28;20061;-89
2022/04/19 04:35:25;;;;;;;4.65;3.10;;;9.70;1.00;;;;;;5056946;28;20088;-89
2022/04/19 04:37:50;;;;;;;4.47;3.22;;;9.80;1.00;;;;;;5054363;28;20037;-88
2022/04/19 04:40:17;;;;;;;4.75;3.20;;;10.00;1.00;;;;;;5056026;28;20039;-89
2022/04/19 04:42:43;;;;;;;5.88;3.10;;;9.70;1.00;;;;;;5055635;28;20093;-89
2022/04/19 04:45:09;;;;;;;5.13;2.80;;;9.50;1.00;;;;;;5051804;28;20031;-89
2022/04/19 04:50:22;;;;;;;3.85;3.45;;;9.70;1.00;;;;;;5055656;28;20040;-89
2022/04/19 04:52:49;;;;;;;5.03;3.38;;;9.50;1.00;;;;;;5055775;28;20438;-89
2022/04/19 04:55:23;;;;;;;4.03;3.10;;;9.40;1.00;;;;;;5054667;28;20032;-89
2022/04/19 04:57:50;;;;;;;3.80;3.05;;;9.70;1.00;;;;;;5055696;28;20021;-89
2022/04/19 05:00:16;;;;;;;5.72;3.50;;;9.60;1.00;;;;;;5052570;28;20024;-87
2022/04/19 05:02:44;;;;;;;8.23;3.85;;;9.50;1.00;;;;;;5055369;28;20063;-89
2022/04/19 05:05:09;;;;;;;4.15;3.30;;;9.50;1.00;;;;;;5056106;28;20098;-89
2022/04/19 05:07:37;;;;;;;3.63;3.25;;;9.50;1.00;;;;;;5056303;28;20040;-88
2022/04/19 05:10:05;;;;;;;4.47;3.50;;;9.50;1.00;;;;;;5055487;28;20478;-89
2022/04/19 05:12:31;;;;;;;3.72;2.90;;;9.60;1.00;;;;;;5052851;28;20032;-88
2022/04/19 05:14:57;;;;;;;10.70;3.38;;;9.40;1.00;;;;;;5051519;28;20033;-88
2022/04/19 05:17:23;;;;;;;6.25;3.90;;;9.40;1.00;;;;;;5056078;28;20029;-88
2022/04/19 05:19:49;;;;;;;6.70;3.40;;;9.50;1.00;;;;;;5054908;28;20116;-88
2022/04/19 05:22:14;;;;;;;6.47;3.47;;;9.60;1.00;;;;;;5054989;28;20033;-88
2022/04/19 05:24:43;;;;;;;6.20;3.80;;;9.50;1.00;;;;;;5054457;28;20020;-89
2022/04/19 05:27:09;;;;;;;5.40;3.65;;;9.40;1.00;;;;;;5051169;28;20539;-89
2022/04/19 05:29:35;;;;;;;10.50;3.90;;;9.40;1.00;;;;;;5056599;28;20029;-89
2022/04/19 05:32:01;;;;;;;7.03;3.30;;;9.40;1.00;;;;;;5054788;28;20128;-89
2022/04/19 05:34:27;;;;;;;6.07;3.70;;;9.50;1.00;;;;;;5054107;28;20029;-89
2022/04/19 05:36:53;;;;;;;7.03;3.97;;;9.30;1.00;;;;;;5054628;28;20453;-89
2022/04/19 05:39:19;;;;;;;6.60;3.85;;;9.30;1.00;;;;;;5050811;28;20593;-89
2022/04/19 05:41:44;;;;;;;7.03;3.80;;;9.30;1.00;;;;;;5054104;28;20025;-89
2022/04/19 05:44:10;;;;;;;6.82;3.90;;;9.30;1.00;;;;;;5055761;28;20108;-89
2022/04/19 05:46:36;;;;;;;5.35;3.60;;;9.40;1.00;;;;;;5054692;28;20037;-89
2022/04/19 05:49:04;;;;;;;5.47;4.57;;;9.40;1.00;;;;;;5054061;28;20079;-89
2022/04/19 05:51:31;;;;;;;5.72;4.10;;;9.50;1.00;;;;;;5052410;28;20074;-89
2022/04/19 05:53:57;;;;;;;7.20;4.18;;;9.60;1.00;;;;;;5051032;28;20063;-88
2022/04/19 05:56:33;;;;;;;7.32;4.03;;;9.70;1.00;;;;;;5055610;28;20033;-89
2022/04/19 05:58:59;;;;;;;16.77;5.55;;;9.70;1.00;;;;;;5054426;28;20413;-88
2022/04/19 06:01:25;;;;;;;10.90;4.30;;;9.50;1.00;;;;;;5054681;28;20025;-89
2022/04/19 06:06:34;;;;;;;8.75;5.03;;;10.10;1.00;;;;;;5052991;28;20027;-89
2022/04/19 06:09:00;;;;;;;7.10;4.30;;;10.20;1.00;;;;;;5050619;28;20033;-89
2022/04/19 06:11:26;;;;;;;9.32;4.78;;;10.20;1.00;;;;;;5056571;28;20075;-89
2022/04/19 06:13:53;;;;;;;5.60;3.85;;;10.20;1.00;;;;;;5052632;28;20037;-89
2022/04/19 06:16:19;;;;;;;5.05;4.00;;;10.10;1.00;;;;;;5053783;28;20090;-89
2022/04/19 06:18:45;;;;;;;5.05;3.70;;;10.40;1.00;;;;;;5053890;28;20032;-89
2022/04/19 06:21:10;;;;;;;8.60;3.97;;;10.40;1.00;;;;;;5050612;28;20025;-89
2022/04/19 06:23:36;;;;;;;7.60;4.22;;;10.40;1.00;;;;;;5054795;28;20473;-89
2022/04/19 06:26:03;;;;;;;13.55;5.38;;;10.40;1.00;;;;;;5061074;28;20032;-87
2022/04/19 06:28:29;;;;;;;7.95;4.55;;;10.50;1.00;;;;;;5058234;28;20120;-88
2022/04/19 06:30:54;;;;;;;6.30;4.40;;;10.60;1.00;;;;;;5054017;28;20021;-88
2022/04/19 06:33:20;;;;;;;5.40;4.60;;;10.60;1.00;;;;;;5049339;28;20050;-88
2022/04/19 06:35:47;;;;;;;6.63;5.10;;;10.80;1.00;;;;;;5052655;28;20037;-89
2022/04/19 06:38:12;;;;;;;6.15;4.72;;;10.80;1.00;;;;;;5055414;28;20040;-89
2022/04/19 06:40:38;;;;;;;9.38;5.50;;;11.10;1.00;;;;;;5054220;28;20056;-89
2022/04/19 06:43:04;;;;;;;6.13;4.78;;;10.90;1.00;;;;;;5052426;28;20044;-88
2022/04/19 06:45:30;;;;;;;5.78;4.55;;;11.00;1.00;;;;;;5052766;28;20032;-89
2022/04/19 06:48:02;;;;;;;9.18;5.80;;;11.10;1.00;;;;;;5050500;28;20028;-89
2022/04/19 06:50:28;;;;;;;6.18;5.10;;;11.20;1.00;;;;;;5055899;28;20060;-89
2022/04/19 06:52:55;;;;;;;7.47;4.65;;;11.30;1.00;;;;;;5053898;28;20044;-89
2022/04/19 06:55:21;;;;;;;5.60;4.50;;;11.40;1.00;;;;;;5053722;28;20066;-88
2022/04/19 06:57:48;;;;;;;8.75;5.60;;;11.40;1.00;;;;;;5053191;28;20497;-89
2022/04/19 07:00:15;;;;;;;7.10;5.07;;;11.60;1.00;;;;;;5051104;28;20090;-89
2022/04/19 07:02:40;;;;;;;7.63;5.20;;;11.60;1.00;;;;;;5055129;28;20077;-84
2022/04/19 07:05:06;;;;;;;5.88;4.28;;;11.60;1.00;;;;;;5054256;28;20021;-83
2022/04/19 07:07:33;;;;;;;9.40;5.13;;;11.70;1.00;;;;;;5053697;28;20029;-84
2022/04/19 07:09:59;;;;;;;10.50;5.15;;;11.80;1.00;;;;;;5052123;28;20444;-84
2022/04/19 07:12:24;;;;;;;9.35;5.05;;;11.90;1.00;;;;;;5050176;28;20037;-83
2022/04/19 07:14:50;;;;;;;11.10;5.43;;;12.00;1.00;;;;;;5051757;28;20100;-88
2022/04/19 07:17:16;;;;;;;8.23;4.40;;;12.00;1.00;;;;;;5055197;28;20041;-88
2022/04/19 07:28:00;;;;;;;6.97;4.25;;;12.50;1.00;;;;;;5032307;28;20504;-89
2022/04/19 07:30:25;;;;;;;10.55;4.43;;;12.50;1.00;;;;;;5031876;28;20091;-89
2022/04/19 07:32:51;;;;;;;7.38;4.03;;;12.60;1.00;;;;;;5031613;28;20496;-89
2022/04/19 07:35:17;;;;;;;9.30;4.32;;;12.70;1.00;;;;;;5035678;28;20485;-89
2022/04/19 07:37:44;;;;;;;7.35;4.53;;;12.70;1.00;;;;;;5029307;28;20045;-89
2022/04/19 07:40:10;;;;;;;6.38;4.35;;;12.80;1.00;;;;;;5031744;28;20111;-89
2022/04/19 07:42:36;;;;;;;9.05;4.93;;;12.90;1.00;;;;;;5016015;28;20593;-88
2022/04/19 07:45:02;;;;;;;11.32;4.68;;;12.90;1.00;;;;;;5031396;28;20061;-89
2022/04/19 07:47:27;;;;;;;11.45;4.80;;;13.00;1.00;;;;;;5031381;28;20036;-87
2022/04/19 07:49:57;;;;;;;7.10;4.05;;;13.10;1.00;;;;;;5031220;28;20482;-89
2022/04/19 07:52:22;;;;;;;9.32;5.25;;;13.30;1.00;;;;;;5031409;28;20124;-90
2022/04/19 07:54:48;;;;;;;13.13;5.82;;;13.30;1.00;;;;;;5031133;28;20120;-89
2022/04/19 07:57:20;;;;;;;13.02;4.88;;;13.40;1.00;;;;;;5030979;28;20549;-89
2022/04/19 07:59:47;;;;;;;10.13;4.93;;;13.50;1.00;;;;;;5033513;28;20033;-89
2022/04/19 08:02:14;;;;;;;7.05;4.95;;;13.60;1.00;;;;;;5058067;28;20043;-89
2022/04/19 08:04:40;;;;;;;6.53;5.05;;;13.60;1.00;;;;;;5056138;28;20029;-90
2022/04/19 08:07:06;;;;;;;6.00;4.45;;;13.70;1.00;;;;;;5056051;28;20032;-90
2022/04/19 08:09:32;;;;;;;7.30;4.95;;;13.60;1.00;;;;;;5055451;28;20025;-89
2022/04/19 08:11:58;;;;;;;5.22;4.72;;;13.70;1.00;;;;;;5052486;28;20041;-89
2022/04/19 08:14:24;;;;;;;8.63;5.10;;;13.70;1.00;;;;;;5058262;28;20413;-90
2022/04/19 08:16:50;;;;;;;7.32;5.20;;;13.80;1.00;;;;;;5052887;28;20058;-90
2022/04/19 08:19:15;;;;;;;6.93;5.40;;;14.00;1.00;;;;;;5061039;28;20036;-91
2022/04/19 08:21:41;;;;;;;7.32;4.75;;;14.10;1.00;;;;;;5067271;28;20020;-89
2022/04/19 08:24:07;;;;;;;5.13;3.90;;;14.20;1.00;;;;;;5051787;28;20029;-89
2022/04/19 08:26:32;;;;;;;5.60;4.07;;;14.30;1.00;;;;;;5064805;28;20025;-89
2022/04/19 08:28:58;;;;;;;7.10;4.38;;;14.40;1.00;;;;;;5053659;28;20033;-90
2022/04/19 08:31:24;;;;;;;5.45;4.63;;;14.50;1.00;;;;;;5054425;28;20394;-90
2022/04/19 08:33:49;;;;;;;6.40;4.15;;;14.50;1.00;;;;;;5055779;28;20567;-89
2022/04/19 08:36:15;;;;;;;5.40;4.43;;;14.70;1.00;;;;;;5052328;28;20037;-90
2022/04/19 08:38:40;;;;;;;5.18;4.22;;;14.80;1.00;;;;;;5056282;28;20029;-89
2022/04/19 08:41:06;;;;;;;5.75;4.07;;;14.90;1.00;;;;;;5056062;28;20059;-90
2022/04/19 08:43:33;;;;;;;6.25;4.22;;;14.90;1.00;;;;;;5053443;28;20060;-90
2022/04/19 08:46:01;;;;;;;4.57;4.00;;;15.10;1.00;;;;;;5055413;28;20017;-90
2022/04/19 08:48:27;;;;;;;4.97;3.90;;;15.20;1.00;;;;;;5053695;28;20029;-90
2022/04/19 08:50:56;;;;;;;7.00;3.78;;;15.30;1.00;;;;;;5052946;28;20492;-90
2022/04/19 08:58:54;;;;;;;6.03;3.88;;;15.70;1.00;;;;;;5061074;28;20593;-92
2022/04/19 09:01:20;;;;;;;5.32;3.50;;;15.90;1.00;;;;;;5061116;28;20474;-90
2022/04/19 09:03:48;;;;;;;4.18;2.97;;;16.00;1.00;;;;;;5052665;28;20021;-91
2022/04/19 09:06:13;;;;;;;4.30;3.13;;;16.20;1.00;;;;;;5065278;28;20041;-89
2022/04/19 09:08:39;;;;;;;3.22;2.55;;;16.30;1.00;;;;;;5055794;28;20025;-90
2022/04/19 09:11:09;;;;;;;4.68;2.97;;;16.30;1.00;;;;;;5053969;28;20757;-90
2022/04/19 09:13:36;;;;;;;5.03;2.88;;;16.40;1.00;;;;;;5054885;28;20154;-90
2022/04/19 09:16:06;;;;;;;4.07;2.80;;;16.70;1.00;;;;;;5053737;28;20036;-89
2022/04/19 09:18:35;;;;;;;3.60;3.30;;;16.80;1.00;;;;;;5053712;28;20032;-90
2022/04/19 09:21:03;;;;;;;4.88;3.30;;;16.80;1.00;;;;;;5050886;28;20044;-90
2022/04/19 09:23:31;;;;;;;4.22;3.08;;;16.70;1.00;;;;;;5056859;28;20033;-89
2022/04/19 09:26:05;;;;;;;4.00;3.00;;;16.80;1.00;;;;;;5054091;28;20025;-90
2022/04/19 09:28:34;;;;;;;3.75;2.92;;;17.00;1.00;;;;;;5054906;28;20033;-89
2022/04/19 09:31:00;;;;;;;5.40;3.17;;;17.30;1.00;;;;;;5054157;28;20488;-90
2022/04/19 09:33:30;;;;;;;8.30;3.15;;;17.50;1.00;;;;;;5052361;28;20114;-89
2022/04/19 09:36:03;;;;;;;5.93;2.90;;;17.70;1.00;;;;;;5051776;28;20025;-90
2022/04/19 09:38:49;;;;;;;4.45;2.80;;;17.80;1.00;;;;;;5056639;28;20055;-90
2022/04/19 09:41:35;;;;;;;5.90;3.20;;;17.80;1.00;;;;;;5055404;28;20029;-91
2022/04/19 09:44:05;;;;;;;3.35;3.05;;;17.60;1.00;;;;;;5052893;28;20045;-90
2022/04/19 09:46:31;;;;;;;3.67;2.95;;;17.50;1.00;;;;;;5053055;28;20025;-90
2022/04/19 09:48:57;;;;;;;3.40;3.10;;;17.70;1.00;;;;;;5052892;28;20094;-90
2022/04/19 09:51:30;;;;;;;3.45;2.78;;;17.80;1.00;;;;;;5051873;28;20027;-90
2022/04/19 09:53:56;;;;;;;3.88;2.85;;;18.00;1.00;;;;;;5051142;28;20021;-91
2022/04/19 09:56:22;;;;;;;5.28;2.65;;;18.20;1.00;;;;;;5056459;28;20056;-92
2022/04/19 09:58:50;;;;;;;4.30;3.30;;;18.20;1.00;;;;;;5054380;28;20441;-92
2022/04/19 10:09:36;;;;;;;3.35;2.20;;;18.40;1.00;;;;;;5052365;28;20063;-91
2022/04/19 10:12:04;;;;;;;4.22;2.50;;;18.40;1.00;;;;;;5049699;28;20047;-91
2022/04/19 10:14:31;;;;;;;3.83;2.40;;;18.70;1.00;;;;;;5055799;28;20067;-91
2022/04/19 10:16:58;;;;;;;2.67;2.10;;;18.90;1.00;;;;;;5052608;28;20055;-91
2022/04/19 10:19:25;;;;;;;4.57;2.33;;;19.10;1.00;;;;;;5052326;28;20448;-87
2022/04/19 10:21:52;;;;;;;2.97;2.00;;;18.90;1.00;;;;;;5041430;28;20039;-96
2022/04/19 10:24:19;;;;;;;3.78;2.45;;;18.90;1.00;;;;;;5071244;28;20397;-94
2022/04/19 10:26:51;;;;;;;2.88;2.60;;;19.40;1.00;;;;;;5076822;28;20018;-96
2022/04/19 10:29:28;;;;;;;2.95;2.33;;;19.40;1.00;;;;;;5065673;28;20044;-90
2022/04/19 10:31:55;;;;;;;4.78;2.15;;;19.70;1.00;;;;;;5055231;28;20032;-94
2022/04/19 10:34:26;;;;;;;2.80;1.80;;;20.00;1.00;;;;;;5061916;28;20060;-96
2022/04/19 10:36:55;;;;;;;3.78;2.17;;;20.40;1.00;;;;;;5069054;28;20039;-94
2022/04/19 10:39:22;;;;;;;2.78;1.88;;;20.90;1.00;;;;;;5051136;28;20047;-90
2022/04/19 10:41:51;;;;;;;2.30;1.80;;;21.50;1.00;;;;;;5052189;28;20032;-89
2022/04/19 10:44:24;;;;;;;2.45;1.75;;;21.60;1.00;;;;;;5053678;28;20490;-91
2022/04/19 10:47:23;;;;;;;4.65;1.80;;;21.40;1.00;;;;;;5053455;28;20036;-93
2022/04/19 10:50:02;;;;;;;1.98;1.67;;;22.10;1.00;;;;;;5028093;28;20061;-88
2022/04/19 10:52:39;;;;;;;5.88;2.10;;;22.40;1.00;;;;;;5028662;28;20534;-88
2022/04/19 10:55:19;;;;;;;2.80;1.80;;;22.90;1.00;;;;;;5032030;28;20033;-89
2022/04/19 10:58:17;;;;;;;3.80;2.03;;;22.80;1.00;;;;;;5031840;28;20040;-87
2022/04/19 11:00:48;;;;;;;2.47;1.92;;;23.40;1.00;;;;;;5032128;28;20099;-91
2022/04/19 11:03:37;;;;;;;2.00;1.70;;;23.30;1.00;;;;;;5031966;28;20042;-88
2022/04/19 11:06:09;;;;;;;4.10;2.00;;;23.70;1.00;;;;;;5032186;28;20030;-93
2022/04/19 11:08:37;;;;;;;3.22;2.15;;;24.20;1.00;;;;;;5030553;28;20040;-94
2022/04/19 11:11:03;;;;;;;2.80;2.00;;;24.50;1.00;;;;;;5036851;28;20033;-94
2022/04/19 11:13:35;;;;;;;2.58;1.90;;;25.20;1.00;;;;;;5032301;28;20041;-91
2022/04/19 11:16:13;;;;;;;2.80;1.90;;;25.00;1.00;;;;;;5031937;28;20052;-91
2022/04/19 11:18:39;;;;;;;3.50;1.73;;;24.70;1.00;;;;;;5032490;28;20144;-91
2022/04/19 11:21:12;;;;;;;2.22;1.90;;;25.00;1.00;;;;;;5031656;28;20117;-91
2022/04/19 11:23:42;;;;;;;1.90;1.80;;;25.60;99.90;;;;;;5028191;28;20052;-94
2022/04/19 11:26:30;;;;;;;2.25;1.85;;;25.60;99.90;;;;;;5055259;28;20037;-91
2022/04/19 11:29:18;;;;;;;3.60;1.80;;;25.80;99.90;;;;;;5058538;28;20106;-92
2022/04/19 11:31:43;;;;;;;1.73;1.63;;;26.20;99.90;;;;;;5056612;28;20036;-92
2022/04/19 11:34:16;;;;;;;2.30;1.38;;;26.30;99.90;;;;;;5056760;28;20041;-92
2022/04/19 11:36:42;;;;;;;1.80;1.58;;;26.60;99.90;;;;;;5056287;28;20615;-92
2022/04/19 11:46:43;;;;;;;2.90;1.60;;;27.00;99.90;;;;;;5052911;28;20555;-92
2022/04/19 11:47:49;;;;;;;1.60;1.20;;;27.80;99.90;;;;;;5058443;28;20075;-92
2022/04/19 11:50:31;;;;;;;1.42;1.15;;;27.90;99.90;;;;;;5058224;28;20041;-92
2022/04/19 11:53:00;;;;;;;1.63;1.25;;;28.10;99.90;;;;;;5056158;28;20033;-92
2022/04/19 11:55:27;;;;;;;1.85;1.45;;;27.90;99.90;;;;;;5056808;28;20411;-92
2022/04/19 11:58:09;;;;;;;2.50;1.50;;;28.30;99.90;;;;;;5056483;28;20501;-92
2022/04/19 12:00:35;;;;;;;2.05;1.00;;;27.90;99.90;;;;;;5055660;28;20103;-92
2022/04/19 12:03:05;;;;;;;1.20;1.10;;;27.90;99.90;;;;;;5052723;28;20029;-92
2022/04/19 12:05:31;;;;;;;1.70;1.20;;;27.20;99.90;;;;;;5058940;28;20547;-93
2022/04/19 12:07:57;;;;;;;2.33;1.30;;;27.40;99.90;;;;;;5055814;28;20021;-92
2022/04/19 12:10:23;;;;;;;1.30;1.20;;;27.50;99.90;;;;;;5055155;28;20516;-92
2022/04/19 12:12:50;;;;;;;2.15;1.30;;;26.80;99.90;;;;;;5056064;28;20060;-92
2022/04/19 12:15:41;;;;;;;3.13;1.40;;;26.90;99.90;;;;;;5052998;28;20103;-91
2022/04/19 12:18:07;;;;;;;2.03;1.20;;;27.60;99.90;;;;;;5036367;28;20033;-92
2022/04/19 12:20:46;;;;;;;1.88;1.17;;;27.90;99.90;;;;;;5057699;28;20114;-92
2022/04/19 12:23:22;;;;;;;1.52;1.00;;;28.20;99.90;;;;;;5057033;28;20506;-92
2022/04/19 12:25:58;;;;;;;1.23;1.00;;;28.40;99.90;;;;;;5054763;28;20025;-92
2022/04/19 12:28:43;;;;;;;1.73;1.08;;;27.40;99.90;;;;;;5055752;28;20029;-92
2022/04/19 12:31:29;;;;;;;1.20;1.10;;;28.60;99.90;;;;;;5055672;28;20035;-92
2022/04/19 12:33:55;;;;;;;1.48;1.08;;;30.30;99.90;;;;;;5055042;28;20501;-93
2022/04/19 12:36:25;;;;;;;0.93;0.90;;;30.50;99.90;;;;;;5053301;28;20048;-92
2022/04/19 12:39:01;;;;;;;0.70;0.70;;;31.10;99.90;;;;;;5053547;28;20534;-92
2022/04/19 12:41:38;;;;;;;1.60;1.10;;;30.40;99.90;;;;;;5056526;28;20025;-92
2022/04/19 12:44:06;;;;;;;1.00;0.90;;;31.40;99.90;;;;;;5055819;28;20057;-92
2022/04/19 12:46:31;;;;;;;1.30;1.00;;;31.40;99.90;;;;;;5055547;28;20090;-92
2022/04/19 12:48:57;;;;;;;1.23;1.10;;;31.00;99.90;;;;;;5055585;28;20024;-92
2022/04/19 12:51:26;;;;;;;1.00;0.80;;;30.30;99.90;;;;;;5053053;28;20033;-92
2022/04/19 12:54:08;;;;;;;0.90;0.82;;;30.30;99.90;;;;;;5053067;28;20473;-93
2022/04/19 12:56:34;;;;;;;2.17;0.90;;;29.70;99.90;;;;;;5057216;28;20405;-93
2022/04/19 12:59:00;;;;;;;1.42;0.98;;;29.80;99.90;;;;;;5055549;28;20018;-92
2022/04/19 13:01:25;;;;;;;1.08;1.00;;;30.10;99.90;;;;;;5054505;28;20040;-93
2022/04/19 13:03:51;;;;;;;1.65;1.00;;;29.70;99.90;;;;;;5053283;28;20021;-93
2022/04/19 13:14:30;;;;;;;2.28;1.08;;;29.70;99.90;;;;;;5056789;28;20036;-93
2022/04/19 13:16:56;;;;;;;1.70;1.23;;;29.20;99.90;;;;;;5054220;28;20037;-93
2022/04/19 13:19:22;;;;;;;2.05;1.50;;;29.50;99.90;;;;;;5053830;28;20033;-92
2022/04/19 13:21:47;;;;;;;2.35;1.10;;;28.90;99.90;;;;;;5054623;28;20024;-93
2022/04/19 13:24:14;;;;;;;3.38;1.23;;;27.70;99.90;;;;;;5049819;28;20029;-93
2022/04/19 13:26:39;;;;;;;2.15;0.90;;;28.60;99.90;;;;;;5054557;28;20056;-93
2022/04/19 13:29:05;;;;;;;2.35;1.13;;;28.80;99.90;;;;;;5055552;28;20083;-92
2022/04/19 13:31:31;;;;;;;1.10;1.00;;;28.50;99.90;;;;;;5053085;28;20028;-91
2022/04/19 13:33:57;;;;;;;1.88;1.10;;;27.90;99.90;;;;;;5053812;28;20048;-92
2022/04/19 13:36:24;;;;;;;1.13;1.02;;;27.20;99.90;;;;;;5053168;28;20041;-91
2022/04/19 13:38:49;;;;;;;2.00;1.08;;;27.60;99.90;;;;;;5053304;28;20021;-92
2022/04/19 13:41:15;;;;;;;1.17;1.00;;;28.80;99.90;;;;;;5053867;28;20366;-91
2022/04/19 13:43:41;;;;;;;1.15;1.00;;;28.70;99.90;;;;;;5053475;28;20078;-92
2022/04/19 13:46:06;;;;;;;1.35;1.00;;;28.90;99.90;;;;;;5055012;28;20032;-91
2022/04/19 13:48:33;;;;;;;1.67;1.05;;;28.90;99.90;;;;;;5053004;28;20471;-93
2022/04/19 13:50:59;;;;;;;1.33;1.00;;;29.30;99.90;;;;;;5051191;28;20445;-93